x

Yucatan Basin - 120 Nm Ese Of Cozumel, Mx (42056) Wave Buoy

2:50 - Sun 28th Dec 2014 All times are CST. -6 hours from GMT.

  • Sig Wave height 5.6ft
  • Swell Direction
  • Peak Period 8s
  • Average Period 6s
  • Wind
    18mph, 20mph gusts
  • Sea Temp 81°f
  • Ar Temp 80°f
  • Sea Pressure 1015.1mb
  •  Yucatan Basin - 120 Nm Ese Of Cozumel, Mx
  •  Yucatan Basin - 120 Nm Ese Of Cozumel, Mx

More Historic Weather Station data

Upgrade to MSW Pro to gain access to the past 30 days of data for over 8000 Wavebouys and Weather Stations around the globe.

Join Pro

Comparision Forecast

View Surf forecast
   
Dom 12/28 2:50 5.5ft 8s 6s 18 20 mph 1015.1mb 81f 80f
1:50 5.5ft 7s 5s 18 20 mph 1015.6mb 81f 80f
12:50 6ft 8s 6s 18 22 mph 1016.2mb 81f 80f
Sáb 12/27 11:50 6ft 8s 5s 18 20 mph 1016.5mb 81f 80f
10:50 6ft 7s 5s 20 25 mph 1016.8mb 81f 80f
9:50 6ft 7s 5s 20 25 mph 1017mb 81f 80f
8:50 6ft 7s 5s 20 25 mph 1017.2mb 81f 81f
7:50 6ft 8s 5s 20 25 mph 1017.2mb 81f 80f
6:50 6ft 7s 5s 20 25 mph 1016.7mb 81f 80f
5:50 5.5ft 7s 5s 20 25 mph 1016.1mb 81f 80f
4:50 5.5ft 7s 5s 20 22 mph 1016mb 81f 81f
3:50 6ft 7s 5s 20 25 mph 1015.7mb 81f 81f
2:50 5ft 6s 5s 20 25 mph 1015.7mb 82f 81f
1:50 6ft 6s 5s 20 25 mph 1015.8mb 81f 81f
12:50 5.5ft 6s 5s 20 25 mph 1016.3mb 82f 81f
11:50 5ft 7s 5s 22 27 mph 1017.1mb 82f 81f
10:50 5ft 6s 5s 22 25 mph 1017.9mb 82f 81f
9:50 5ft 6s 5s 20 25 mph 1018.2mb 82f 81f
8:50 5ft 6s 5s 22 25 mph 1018.2mb 82f 81f
7:50 5.5ft 6s 5s 22 25 mph 1017.5mb 81f 81f
6:50 5ft 7s 5s 22 27 mph 1016.6mb 81f 81f
5:50 5ft 7s 5s 25 27 mph 1015.7mb 81f 81f
4:50 5.5ft 6s 5s 20 25 mph 1015.2mb 81f 80f
3:50 6ft 6s 5s 22 25 mph 1015.1mb 81f 80f
2:50 6ft 7s 5s 20 25 mph 1014.9mb 81f 80f
1:50 6ft 6s 5s 20 22 mph 1015.3mb 81f 80f
12:50 6ft 6s 5s 22 27 mph 1015.4mb 81f 80f
Sex 12/26 11:50 5.5ft 6s 5s 22 27 mph 1016mb 81f 80f
10:50 5.5ft 6s 5s 22 27 mph 1016.4mb 81f 80f
9:50 5ft 6s 5s 22 25 mph 1016.6mb 81f 80f
8:50 5ft 6s 5s 20 25 mph 1016.9mb 81f 80f
7:50 5ft 9s 5s 20 25 mph 1016.5mb 81f 80f
6:50 4.5ft 8s 5s 18 22 mph 1016.2mb 81f 80f
5:50 5ft 6s 5s 18 20 mph 1015.9mb 81f 80f
4:50 5.5ft 6s 5s 18 20 mph 1015.6mb 81f 80f
3:50 5ft 9s 5s 20 22 mph 1015mb 82f 80f
2:50 5.5ft 9s 6s 18 22 mph 1015.2mb 82f 80f
1:50 5.5ft 9s 6s 18 20 mph 1015.5mb 82f 80f
12:50 5ft 10s 5s 18 20 mph 1016.2mb 82f 81f
11:50 5ft 9s 6s 16 20 mph 1017.2mb 81f 80f
10:50 5.5ft 9s 5s 16 18 mph 1018mb 81f 81f
9:50 6ft 9s 6s 16 20 mph 1018.4mb 81f 81f
8:50 6ft 10s 6s 18 20 mph 1018.3mb 81f 80f
7:50 5.5ft 10s 6s 18 22 mph 1017.3mb 81f 81f
6:50 6ft 10s 6s 18 22 mph 1016.4mb 81f 80f
5:50 5.5ft 7s 6s 18 20 mph 1015.8mb 81f 80f
4:50 6ft 8s 6s 18 20 mph 1015.1mb 81f 80f
3:50 5.5ft 10s 6s 18 22 mph 1015.1mb 81f 80f
2:50 6ft 9s 6s 20 22 mph 1015mb 81f 80f
1:50 5ft 10s 6s 18 20 mph 1015.6mb 81f 80f
12:50 6ft 10s 6s 18 20 mph 1016mb 82f 80f
Qui 12/25 11:50 6ft 11s 6s 18 20 mph 1016.2mb 82f 80f
10:50 6ft 10s 6s 16 18 mph 1016.9mb 82f 80f
9:50 7ft 11s 7s 16 20 mph 1017.2mb 82f 80f
8:50 7ft 11s 7s 16 20 mph 1017.1mb 82f 79f
7:50 7ft 11s 7s 16 20 mph 1016.7mb 82f 79f
6:50 8ft 9s 7s 16 18 mph 1016.1mb 82f 79f
5:50 8ft 11s 7s 16 18 mph 1015.7mb 82f 80f
4:50 8ft 11s 7s 13 18 mph 1015.5mb 82f 79f
3:50 8ft 9s 7s 13 18 mph 1015.3mb 82f 78f
2:50 8ft 10s 7s 18 20 mph 1015.3mb 81f 76f
1:50 8ft 9s 6s 22 27 mph 1015.5mb 81f 77f
12:50 7ft 8s 6s 22 27 mph 1015.6mb 81f 79f
11:50 6.5ft 8s 6s 22 27 mph 1016.4mb 81f 79f
10:50 5ft 8s 5s 22 27 mph 1017mb 81f 79f
9:50 4ft 8s 5s 22 27 mph 1017.5mb 81f 80f
8:50 3.5ft 7s 6s 22 25 mph 1017.3mb 81f 80f
7:50 3.5ft 8s 6s 7 9 mph 1017.3mb 81f 81f
6:50 3.5ft 8s 6s 7
mph
1016.6mb 81f 80f
5:50 3.5ft 8s 6s 4
mph
1015.8mb 81f 80f
4:50 3.5ft 8s 6s 2
mph
1015.3mb 81f 80f
3:50 3.5ft 8s 6s 2 4 mph 1014.8mb 81f 80f
2:50 3.5ft 8s 6s 2
mph
1014.5mb 81f 80f
1:50 4ft 8s 6s 4
mph
1014.3mb 81f 80f
12:50 4ft 8s 6s 7 9 mph 1014.4mb 81f 81f
Qua 12/24 11:50 4ft 7s 6s 7 9 mph 1014.8mb 81f 81f
10:50 4ft 6s 5s 7 9 mph 1014.8mb 81f 81f
9:50 4.5ft 7s 5s 7 9 mph 1014.9mb 81f 81f
8:50 4.5ft 6s 5s 7 9 mph 1014.6mb 81f 81f
7:50 4.5ft 6s 6s 7 9 mph 1014mb 81f 81f
6:50 4.5ft 6s 6s 11
mph
1013mb 81f 81f
5:50 5.5ft 7s 6s 13
mph
1012.2mb 81f 81f
4:50 5ft 7s 5s 13 16 mph 1011.4mb 81f 81f
3:50 5ft 7s 5s 13 16 mph 1010.8mb 81f 82f
2:50 5ft 6s 5s 16 18 mph 1010.4mb 81f 82f
1:50 5.5ft 8s 5s 16 18 mph 1010.2mb 81f 82f
12:50 6ft 6s 5s 18 22 mph 1010.5mb 81f 82f
11:50 6ft 7s 5s 18 20 mph 1011.2mb 81f 82f
10:50 6ft 7s 5s 20 25 mph 1011.8mb 81f 82f
9:50 6.5ft 8s 5s 20 25 mph 1012mb 81f 82f